Pursley, Texas
Current Conditions -  °F | °C
As of 9:53 AM on Thursday 29 Jan 2015 (Local Time) from KCRS Reporting Station
Clear Clear  
Wind Chill: 61°   Ceiling: Unl
Heat Index: 61°   Visibility: 10mi
Dew Point: 51°   Wind: 8mph
Humidity: 70%   Direction: 290°WNW
Pressure: 30.25"   Gusts: NA
Location:  31.9458°N, 96.5713°W
Report Text: KCRS 291553Z AUTO 29007KT 10SM CLR 16/11 A3025 RMK AO2 SLP242 T01610106
Loading
Personal Weather Stations






























Interactive Weather Map New forecast layout! Learn more

10-Day Weather Forecast

Advertisements
Track Severe Weather on mobile